< Cyclone 197011 1970 Season Cyclone 197013 >
Cyclone 197012 (JUDY)
General InformationTrack Information on Google Maps || ResourceGoogle EarthGE AnimationAtom FeedGeoJSON
Detalied Best Track (Time Zone = UTC)
Year Month Day Hour Lat. Long. Pressure (hPa) Wind (kt) Class Image Chart
1970 2 9 01 -12.9 101.0 1006 0 0 -- --
1970 2 9 12 -13.2 98.6 1005.33 0 0 -- --
1970 2 9 18 -13.3 97.8 1004.67 0 0 -- --
1970 2 10 00 -13.4 97.0 1004 0 0 -- --
1970 2 10 06 -13.5 96.3 1003 0 0 -- --
1970 2 10 12 -13.6 95.7 1002 0 0 -- --
1970 2 10 18 -13.8 95.3 1001 0 0 -- --
1970 2 11 00 -14.1 94.7 1000 0 0 -- --
1970 2 11 06 -14.3 93.5 999 0 0 -- --
1970 2 11 12 -14.6 92.3 998 0 0 -- --
1970 2 11 18 -14.8 91.1 997 0 0 -- --
1970 2 12 00 -14.9 89.9 996 0 0 -- --
1970 2 12 06 -15.0 89.4 987 0 0 -- --
1970 2 12 12 -15.1 89.2 978 0 0 -- --
1970 2 12 18 -15.2 88.6 969 0 0 -- --
1970 2 13 00 -15.2 88.0 960 0 0 -- --
1970 2 13 06 -15.3 87.7 960 0 0 -- --
1970 2 13 12 -15.4 87.5 960 0 0 -- --
1970 2 13 18 -15.6 87.3 960 0 0 -- --
1970 2 14 00 -15.9 87.2 960 0 0 -- --
1970 2 14 06 -16.1 87.2 960 0 0 -- --
1970 2 14 12 -16.3 87.4 960 0 0 -- --
1970 2 14 18 -16.6 87.7 960 0 0 -- --
1970 2 15 00 -16.8 87.9 960 0 0 -- --
1970 2 15 06 -16.6 88.1 960 0 0 -- --
1970 2 15 12 -16.4 88.3 960 0 0 -- --
1970 2 15 18 -16.3 88.5 960 0 0 -- --
1970 2 16 00 -16.1 88.8 960 0 0 -- --
1970 2 16 06 -15.9 89.0 960 0 0 -- --
1970 2 16 12 -15.7 89.2 960 0 0 -- --
1970 2 16 18 -15.5 89.4 960 0 0 -- --
1970 2 17 00 -15.6 89.5 960 0 0 -- --
1970 2 17 06 -15.8 89.6 960 0 0 -- --
1970 2 17 12 -16.1 89.6 960 0 0 -- --
1970 2 17 18 -16.3 89.6 960 0 0 -- --
1970 2 18 00 -16.6 89.5 960 0 0 -- --
1970 2 18 06 -17.3 89.1 966.25 0 0 -- --
1970 2 18 12 -18.4 88.7 972.5 0 0 -- --
1970 2 18 18 -19.1 88.3 978.75 0 0 -- --
1970 2 19 00 -19.9 88.0 985 0 0 -- --
1970 2 19 06 -21.7 88.1 990 0 0 -- --
1970 2 20 01 -23.9 89.0 995 0 0 -- --
1970 2 21 01 -26.9 87.0 1000 0 0 -- --
1970 2 22 01 -29.9 93.0 1002 0 0 -- --
1970 2 23 01 -30.9 98.0 1002 0 0 -- --
1970 2 24 01 -28.9 101.0 1010 0 0 -- --
< Cyclone 197011 1970 Season Cyclone 197013 >

Help